createdAt,value
2022-12-25T00:01:12.143Z,21.20
2022-12-25T00:03:39.225Z,22.30
2022-12-25T00:06:08.336Z,23.23
2022-12-25T00:08:36.564Z,24.42
2022-12-25T00:11:06.726Z,24.52
2022-12-25T00:13:33.445Z,23.05
2022-12-25T00:16:00.413Z,23.23
2022-12-25T00:18:27.071Z,22.92
2022-12-25T00:21:04.721Z,22.73
2022-12-25T00:23:33.932Z,22.58
2022-12-25T00:26:08.395Z,25.10
2022-12-25T00:31:14.725Z,22.75
2022-12-25T00:33:43.661Z,24.38
2022-12-25T00:36:12.181Z,23.23
2022-12-25T00:38:40.212Z,23.23
2022-12-25T00:41:12.420Z,24.10
2022-12-25T00:43:39.426Z,23.55
2022-12-25T00:46:07.809Z,22.48
2022-12-25T00:48:35.298Z,23.92
2022-12-25T00:51:05.640Z,24.45
2022-12-25T00:53:33.047Z,26.38
2022-12-25T00:56:03.225Z,24.30
2022-12-25T00:58:31.986Z,24.33
2022-12-25T01:00:58.904Z,25.95
2022-12-25T01:03:26.659Z,23.58
2022-12-25T01:06:01.956Z,22.00
2022-12-25T01:08:31.872Z,24.58
2022-12-25T01:11:01.683Z,24.40
2022-12-25T01:13:31.992Z,24.70
2022-12-25T01:15:58.803Z,23.70
2022-12-25T01:18:26.364Z,24.98
2022-12-25T01:20:53.376Z,22.92
2022-12-25T01:23:20.013Z,23.65
2022-12-25T01:25:46.725Z,23.27
2022-12-25T01:28:13.547Z,23.23
2022-12-25T01:30:40.362Z,21.45
2022-12-25T01:33:07.233Z,21.95
2022-12-25T01:35:33.961Z,21.75
2022-12-25T01:38:00.669Z,20.60
2022-12-25T01:40:27.320Z,20.40
2022-12-25T01:42:53.985Z,21.10
2022-12-25T01:45:42.412Z,21.98
2022-12-25T01:48:14.534Z,21.33
2022-12-25T01:50:45.701Z,21.88
2022-12-25T01:53:12.728Z,21.33
2022-12-25T01:55:41.989Z,24.00
2022-12-25T01:58:09.570Z,24.55
2022-12-25T02:00:36.352Z,25.50
2022-12-25T02:03:04.254Z,24.55
2022-12-25T02:05:33.856Z,25.05
2022-12-25T02:08:08.445Z,26.60
2022-12-25T02:10:35.200Z,27.92
2022-12-25T02:13:02.881Z,24.25
2022-12-25T02:15:51.496Z,27.20
2022-12-25T02:18:32.651Z,24.77
2022-12-25T02:21:05.444Z,25.45
2022-12-25T02:23:57.095Z,24.73
2022-12-25T02:26:45.711Z,26.02
2022-12-25T02:29:36.817Z,22.92
2022-12-25T02:32:26.023Z,22.77
2022-12-25T02:35:15.755Z,25.75
2022-12-25T02:38:00.607Z,23.17
2022-12-25T02:43:37.187Z,24.85
2022-12-25T02:46:26.684Z,22.65
2022-12-25T02:49:15.307Z,23.30
2022-12-25T02:52:07.782Z,23.27
2022-12-25T02:54:56.688Z,20.38
2022-12-25T02:57:47.587Z,20.67
2022-12-25T03:00:33.793Z,21.00
2022-12-25T03:03:23.067Z,24.52
2022-12-25T03:06:11.695Z,19.33
2022-12-25T03:08:41.486Z,18.05
2022-12-25T03:11:30.090Z,19.55
2022-12-25T03:14:23.441Z,19.40
2022-12-25T03:16:59.636Z,22.17
2022-12-25T03:19:50.430Z,19.05
2022-12-25T03:23:03.276Z,18.25
2022-12-25T03:25:48.810Z,18.27
2022-12-25T03:28:15.525Z,17.98
2022-12-25T03:31:09.298Z,18.40
2022-12-25T03:34:12.878Z,21.92
2022-12-25T03:36:53.534Z,18.67
2022-12-25T03:39:48.094Z,18.73
2022-12-25T03:42:45.605Z,18.63
2022-12-25T03:45:43.712Z,20.05
2022-12-25T03:48:11.567Z,18.52
2022-12-25T03:51:03.951Z,20.80
2022-12-25T03:53:56.758Z,21.58
2022-12-25T03:56:43.867Z,20.45
2022-12-25T03:59:29.389Z,20.27
2022-12-25T04:02:14.988Z,21.38
2022-12-25T04:05:00.346Z,18.33
2022-12-25T04:07:45.438Z,18.75
2022-12-25T04:10:31.027Z,17.50
2022-12-25T04:13:16.368Z,19.33
2022-12-25T04:16:01.952Z,21.95
2022-12-25T04:18:46.833Z,20.25
2022-12-25T04:21:32.000Z,20.35
2022-12-25T04:24:17.611Z,22.45
2022-12-25T04:27:03.471Z,20.77
2022-12-25T04:29:56.233Z,20.75
2022-12-25T04:32:41.642Z,20.95
2022-12-25T04:35:27.605Z,21.17
2022-12-25T04:37:54.193Z,20.63
2022-12-25T04:40:21.293Z,21.92
2022-12-25T04:42:50.539Z,20.92
2022-12-25T04:45:17.721Z,22.98
2022-12-25T04:47:44.420Z,21.13
2022-12-25T04:50:11.409Z,25.20
2022-12-25T04:52:40.092Z,20.05
2022-12-25T04:55:08.953Z,23.05
2022-12-25T04:57:35.945Z,20.92
2022-12-25T05:00:02.842Z,20.25
2022-12-25T05:02:29.690Z,19.35
2022-12-25T05:04:56.502Z,20.15
2022-12-25T05:07:23.193Z,20.48
2022-12-25T05:09:49.918Z,19.58
2022-12-25T05:12:16.600Z,18.40
2022-12-25T05:14:43.194Z,19.75
2022-12-25T05:17:09.873Z,17.50
2022-12-25T05:19:36.633Z,18.23
2022-12-25T05:22:03.335Z,19.23
2022-12-25T05:24:29.943Z,18.10
2022-12-25T05:26:56.642Z,18.15
2022-12-25T05:29:23.373Z,17.30
2022-12-25T05:31:50.059Z,18.05
2022-12-25T05:34:19.865Z,20.08
2022-12-25T05:36:46.502Z,18.90
2022-12-25T05:39:13.337Z,18.98
2022-12-25T05:41:40.714Z,21.50
2022-12-25T05:44:07.400Z,18.42
2022-12-25T05:46:34.078Z,17.35
2022-12-25T05:49:00.780Z,16.95
2022-12-25T05:51:27.549Z,16.60
2022-12-25T05:53:54.451Z,17.83
2022-12-25T05:56:21.308Z,17.33
2022-12-25T05:58:48.084Z,16.98
2022-12-25T06:01:20.723Z,16.85
2022-12-25T06:03:47.689Z,17.58
2022-12-25T06:06:14.693Z,17.73
2022-12-25T06:08:41.490Z,19.83
2022-12-25T06:11:09.069Z,20.50
2022-12-25T06:13:36.688Z,18.63
2022-12-25T06:16:07.722Z,19.02
2022-12-25T06:18:43.420Z,19.52
2022-12-25T06:21:12.348Z,19.40
2022-12-25T06:23:39.784Z,22.65
2022-12-25T06:26:13.113Z,18.98
2022-12-25T06:28:39.957Z,20.38
2022-12-25T06:31:08.244Z,17.60
2022-12-25T06:33:35.687Z,18.30
2022-12-25T06:36:07.301Z,18.48
2022-12-25T06:38:33.860Z,18.45
2022-12-25T06:41:05.738Z,19.27
2022-12-25T06:43:32.352Z,20.10
2022-12-25T06:46:03.942Z,19.58
2022-12-25T06:48:30.592Z,21.13
2022-12-25T06:50:57.358Z,20.52
2022-12-25T06:53:25.281Z,23.08
2022-12-25T06:55:54.718Z,21.98
2022-12-25T06:58:21.387Z,21.45
2022-12-25T07:00:48.091Z,19.60
2022-12-25T07:03:20.354Z,16.85
2022-12-25T07:05:47.424Z,18.98
2022-12-25T07:08:14.479Z,18.42
2022-12-25T07:10:41.038Z,19.00
2022-12-25T07:13:07.735Z,19.55
2022-12-25T07:15:34.383Z,17.95
2022-12-25T07:18:01.156Z,19.08
2022-12-25T07:20:27.757Z,17.50
2022-12-25T07:22:54.384Z,21.25
2022-12-25T07:25:20.956Z,21.23
2022-12-25T07:27:47.701Z,18.38
2022-12-25T07:30:14.469Z,20.05
2022-12-25T07:32:44.326Z,17.08
2022-12-25T07:35:15.838Z,19.63
2022-12-25T07:37:42.767Z,20.75
2022-12-25T07:40:10.228Z,21.42
2022-12-25T07:42:36.836Z,19.60
2022-12-25T07:45:03.943Z,20.90
2022-12-25T07:47:30.805Z,21.48
2022-12-25T07:49:57.386Z,20.45
2022-12-25T07:52:24.101Z,22.83
2022-12-25T07:54:50.714Z,18.48
2022-12-25T07:57:17.373Z,18.00
2022-12-25T07:59:44.380Z,18.60
2022-12-25T08:02:13.168Z,17.75
2022-12-25T08:05:13.900Z,17.35
2022-12-25T08:07:41.036Z,18.48
2022-12-25T08:10:08.441Z,16.85
2022-12-25T08:12:35.087Z,18.42
2022-12-25T08:15:05.112Z,17.65
2022-12-25T08:17:49.935Z,17.13
2022-12-25T08:22:43.876Z,16.92
2022-12-25T08:25:20.452Z,16.63
2022-12-25T08:27:47.103Z,14.50
2022-12-25T08:30:14.011Z,17.55
2022-12-25T08:32:43.811Z,20.02
2022-12-25T08:35:10.624Z,20.05
2022-12-25T08:37:37.323Z,12.43
2022-12-25T08:40:04.426Z,17.42
2022-12-25T08:42:31.567Z,16.33
2022-12-25T08:44:58.155Z,16.38
2022-12-25T08:47:24.865Z,16.45
2022-12-25T08:50:04.602Z,14.45
2022-12-25T08:52:31.461Z,12.70
2022-12-25T08:54:58.080Z,12.32
2022-12-25T08:57:24.739Z,13.73
2022-12-25T08:59:51.422Z,13.35
2022-12-25T09:02:19.017Z,11.05
2022-12-25T09:04:52.095Z,14.10
2022-12-25T09:07:32.345Z,11.05
2022-12-25T09:10:09.209Z,13.02
2022-12-25T09:12:35.970Z,10.98
2022-12-25T09:15:02.784Z,10.63
2022-12-25T09:17:38.770Z,11.02
2022-12-25T09:20:07.005Z,11.85
2022-12-25T09:22:39.974Z,11.90
2022-12-25T09:25:15.579Z,12.38
2022-12-25T09:27:53.051Z,11.00
2022-12-25T09:30:20.044Z,11.27
2022-12-25T09:32:46.842Z,11.57
2022-12-25T09:35:14.406Z,12.18
2022-12-25T09:37:41.118Z,11.27
2022-12-25T09:40:08.477Z,11.02
2022-12-25T09:42:35.422Z,11.82
2022-12-25T09:45:17.650Z,9.75
2022-12-25T09:47:48.027Z,12.23
2022-12-25T09:50:25.208Z,12.90
2022-12-25T09:53:17.125Z,12.73
2022-12-25T09:55:49.874Z,11.82
2022-12-25T09:58:16.559Z,14.15
2022-12-25T10:00:51.773Z,13.50
2022-12-25T10:03:43.618Z,13.18
2022-12-25T10:06:30.646Z,10.05
2022-12-25T10:09:29.641Z,10.20
2022-12-25T10:12:14.640Z,8.65
2022-12-25T10:14:53.225Z,11.32
2022-12-25T10:17:41.674Z,9.73
2022-12-25T10:20:45.871Z,9.30
2022-12-25T10:23:18.592Z,7.80
2022-12-25T10:25:46.890Z,9.32
2022-12-25T10:28:21.337Z,8.07
2022-12-25T10:33:17.568Z,9.95
2022-12-25T10:35:45.395Z,10.30
2022-12-25T10:38:18.732Z,9.00
2022-12-25T10:41:12.835Z,9.43
2022-12-25T10:43:48.984Z,8.05
2022-12-25T10:46:17.288Z,9.38
2022-12-25T10:48:49.775Z,8.65
2022-12-25T10:51:35.892Z,11.32
2022-12-25T10:54:05.228Z,9.05
2022-12-25T10:56:31.936Z,9.52
2022-12-25T10:59:10.995Z,8.70
2022-12-25T11:01:37.771Z,10.07
2022-12-25T11:04:04.638Z,9.43
2022-12-25T11:06:32.690Z,8.43
2022-12-25T11:09:02.873Z,9.70
2022-12-25T11:11:30.587Z,8.57
2022-12-25T11:14:03.027Z,10.18
2022-12-25T11:16:38.424Z,10.00
2022-12-25T11:19:29.747Z,11.95
2022-12-25T11:21:59.731Z,11.25
2022-12-25T11:24:29.290Z,10.43
2022-12-25T11:26:58.435Z,8.18
2022-12-25T11:30:09.982Z,7.32
2022-12-25T11:32:48.835Z,8.95
2022-12-25T11:37:52.510Z,6.15
2022-12-25T11:43:20.039Z,9.00
2022-12-25T11:45:53.205Z,8.02
2022-12-25T11:48:28.352Z,6.47
2022-12-25T11:50:59.434Z,6.35
2022-12-25T11:53:33.379Z,6.03
2022-12-25T11:56:08.744Z,6.72
2022-12-25T11:58:38.252Z,5.32
2022-12-25T12:01:27.591Z,6.30
2022-12-25T12:03:55.223Z,5.63
2022-12-25T12:06:36.237Z,6.28
2022-12-25T12:09:24.507Z,7.10
2022-12-25T12:12:06.524Z,6.30
2022-12-25T12:14:53.645Z,7.43
2022-12-25T12:17:20.375Z,5.72
2022-12-25T12:19:47.074Z,6.00
2022-12-25T12:22:22.623Z,6.65
2022-12-25T12:25:01.547Z,4.93
2022-12-25T12:27:36.159Z,6.30
2022-12-25T12:30:04.493Z,4.90
2022-12-25T12:32:42.912Z,7.63
2022-12-25T12:35:17.177Z,6.80
2022-12-25T12:37:46.334Z,5.90
2022-12-25T12:40:39.327Z,6.00
2022-12-25T12:43:21.167Z,4.63
2022-12-25T12:45:56.603Z,5.18
2022-12-25T12:48:27.869Z,4.70
2022-12-25T12:51:29.208Z,5.00
2022-12-25T12:54:23.762Z,5.45
2022-12-25T12:56:59.356Z,5.60
2022-12-25T12:59:27.238Z,5.03
2022-12-25T13:02:07.834Z,5.53
2022-12-25T13:04:45.280Z,5.55
2022-12-25T13:07:32.180Z,7.95
2022-12-25T13:10:21.264Z,5.55
2022-12-25T13:12:53.377Z,5.40
2022-12-25T13:15:24.766Z,5.80
2022-12-25T13:17:51.672Z,6.43
2022-12-25T13:20:46.507Z,11.00
2022-12-25T13:23:24.655Z,5.50
2022-12-25T13:26:00.355Z,6.28
2022-12-25T13:28:29.705Z,6.57
2022-12-25T13:31:19.895Z,5.25
2022-12-25T13:33:52.824Z,5.35
2022-12-25T13:36:19.710Z,6.63
2022-12-25T13:38:49.160Z,4.18
2022-12-25T13:41:39.694Z,12.95
2022-12-25T13:44:18.281Z,5.00
2022-12-25T13:46:46.628Z,5.13
2022-12-25T13:49:17.743Z,4.30
2022-12-25T13:51:45.245Z,10.25
2022-12-25T13:54:13.968Z,5.82
2022-12-25T13:56:50.569Z,4.93
2022-12-25T13:59:20.203Z,5.80
2022-12-25T14:01:48.651Z,8.68
2022-12-25T14:04:24.062Z,5.78
2022-12-25T14:06:52.083Z,5.07
2022-12-25T14:09:19.678Z,5.90
2022-12-25T14:11:52.056Z,7.63
2022-12-25T14:14:24.750Z,5.75
2022-12-25T14:16:55.017Z,9.60
2022-12-25T14:19:24.358Z,6.43
2022-12-25T14:22:07.610Z,7.97
2022-12-25T14:24:34.951Z,4.63
2022-12-25T14:27:07.164Z,4.13
2022-12-25T14:29:44.766Z,3.78
2022-12-25T14:32:17.264Z,4.68
2022-12-25T14:34:46.746Z,3.92
2022-12-25T14:37:26.316Z,5.28
2022-12-25T14:40:02.482Z,4.03
2022-12-25T14:42:32.437Z,6.20
2022-12-25T14:45:01.401Z,6.72
2022-12-25T14:47:28.568Z,8.10
2022-12-25T14:49:57.520Z,11.32
2022-12-25T14:52:46.865Z,11.65
2022-12-25T14:55:28.836Z,13.48
2022-12-25T14:58:04.675Z,14.05
2022-12-25T15:00:41.084Z,7.32
2022-12-25T15:03:21.279Z,5.85
2022-12-25T15:05:59.223Z,4.97
2022-12-25T15:08:26.123Z,8.13
2022-12-25T15:11:01.117Z,5.35
2022-12-25T15:13:29.844Z,4.25
2022-12-25T15:16:06.501Z,4.15
2022-12-25T15:18:45.772Z,4.95
2022-12-25T15:21:15.891Z,5.65
2022-12-25T15:23:44.870Z,5.07
2022-12-25T15:26:15.183Z,6.60
2022-12-25T15:28:42.219Z,11.43
2022-12-25T15:31:19.644Z,11.65
2022-12-25T15:33:46.342Z,8.30
2022-12-25T15:36:15.203Z,7.35
2022-12-25T15:38:45.043Z,7.88
2022-12-25T15:41:36.365Z,8.55
2022-12-25T15:44:05.645Z,10.43
2022-12-25T15:46:34.001Z,9.43
2022-12-25T15:49:00.882Z,9.93
2022-12-25T15:51:27.577Z,9.00
2022-12-25T15:53:54.276Z,9.90
2022-12-25T15:56:26.796Z,16.67
2022-12-25T15:58:53.358Z,12.15
2022-12-25T16:01:20.954Z,11.60
2022-12-25T16:03:48.268Z,9.57
2022-12-25T16:06:17.598Z,12.15
2022-12-25T16:08:44.925Z,13.23
2022-12-25T16:11:11.930Z,20.92
2022-12-25T16:13:43.043Z,15.98
2022-12-25T16:16:09.736Z,13.52
2022-12-25T16:18:41.912Z,13.32
2022-12-25T16:21:16.756Z,14.82
2022-12-25T16:23:43.965Z,20.20
2022-12-25T16:26:11.098Z,25.00
2022-12-25T16:28:37.955Z,14.40
2022-12-25T16:31:04.867Z,10.48
2022-12-25T16:33:33.098Z,10.13
2022-12-25T16:36:02.664Z,9.73
2022-12-25T16:38:29.268Z,9.93
2022-12-25T16:40:58.783Z,11.73
2022-12-25T16:43:26.036Z,14.30
2022-12-25T16:45:53.121Z,13.32
2022-12-25T16:48:20.113Z,8.75
2022-12-25T16:50:49.471Z,8.55
2022-12-25T16:53:21.329Z,13.50
2022-12-25T16:55:47.902Z,8.07
2022-12-25T16:58:14.508Z,10.48
2022-12-25T17:00:48.865Z,10.85
2022-12-25T17:03:16.258Z,14.45
2022-12-25T17:05:43.107Z,10.68
2022-12-25T17:08:09.843Z,9.52
2022-12-25T17:10:38.799Z,9.15
2022-12-25T17:13:05.580Z,7.85
2022-12-25T17:15:32.193Z,9.27
2022-12-25T17:17:58.862Z,10.73
2022-12-25T17:20:26.070Z,11.52
2022-12-25T17:22:54.007Z,9.75
2022-12-25T17:25:20.631Z,8.88
2022-12-25T17:27:50.610Z,56.17
2022-12-25T17:30:17.477Z,38.13
2022-12-25T17:32:44.129Z,18.15
2022-12-25T17:35:10.887Z,14.30
2022-12-25T17:37:38.249Z,11.00
2022-12-25T17:40:05.447Z,10.82
2022-12-25T17:42:32.244Z,10.63
2022-12-25T17:44:59.481Z,8.82
2022-12-25T17:47:29.831Z,9.05
2022-12-25T17:49:56.530Z,13.45
2022-12-25T17:52:23.211Z,16.83
2022-12-25T17:54:50.568Z,15.32
2022-12-25T17:57:17.167Z,29.35
2022-12-25T17:59:43.790Z,16.58
2022-12-25T18:02:12.302Z,24.48
2022-12-25T18:04:38.996Z,22.02
2022-12-25T18:07:06.937Z,22.67
2022-12-25T18:09:33.631Z,20.23
2022-12-25T18:12:00.283Z,19.33
2022-12-25T18:14:26.900Z,19.95
2022-12-25T18:16:53.645Z,21.88
2022-12-25T18:19:20.477Z,21.02
2022-12-25T18:21:47.991Z,19.08
2022-12-25T18:24:14.861Z,21.52
2022-12-25T18:26:41.528Z,20.80
2022-12-25T18:29:08.180Z,29.80
2022-12-25T18:34:01.765Z,28.05
2022-12-25T18:36:29.776Z,27.20
2022-12-25T18:38:58.136Z,27.90
2022-12-25T18:41:25.610Z,23.65
2022-12-25T18:43:55.591Z,18.48
2022-12-25T18:46:26.579Z,14.02
2022-12-25T18:48:55.859Z,15.18
2022-12-25T18:51:22.815Z,24.67
2022-12-25T18:53:49.591Z,33.97
2022-12-25T18:56:18.576Z,31.15
2022-12-25T18:58:47.299Z,30.85
2022-12-25T19:01:23.522Z,27.48
2022-12-25T19:03:51.928Z,29.33
2022-12-25T19:06:25.372Z,33.58
2022-12-25T19:09:02.073Z,27.88
2022-12-25T19:11:29.142Z,34.28
2022-12-25T19:13:56.853Z,40.38
2022-12-25T19:16:23.690Z,37.35
2022-12-25T19:18:50.504Z,31.70
2022-12-25T19:21:17.141Z,26.83
2022-12-25T19:23:44.296Z,25.67
2022-12-25T19:26:14.169Z,28.65
2022-12-25T19:28:41.669Z,29.20
2022-12-25T19:31:10.238Z,29.75
2022-12-25T19:33:40.670Z,29.60
2022-12-25T19:36:11.576Z,34.35
2022-12-25T19:38:40.354Z,43.40
2022-12-25T19:41:12.032Z,57.38
2022-12-25T19:43:40.593Z,51.45
2022-12-25T19:46:17.950Z,30.92
2022-12-25T19:48:45.258Z,25.25
2022-12-25T19:51:16.180Z,20.08
2022-12-25T19:53:42.927Z,22.50
2022-12-25T19:56:09.602Z,23.58
2022-12-25T19:58:38.107Z,28.48
2022-12-25T20:01:08.427Z,24.40
2022-12-25T20:03:38.871Z,24.15
2022-12-25T20:06:18.977Z,30.77
2022-12-25T20:08:50.357Z,37.28
2022-12-25T20:11:17.863Z,36.78
2022-12-25T20:13:45.132Z,37.40
2022-12-25T20:16:14.757Z,35.08
2022-12-25T20:18:41.961Z,29.42
2022-12-25T20:21:14.770Z,29.52
2022-12-25T20:23:55.126Z,33.13
2022-12-25T20:26:32.692Z,34.95
2022-12-25T20:29:01.663Z,35.40
2022-12-25T20:31:33.758Z,35.67
2022-12-25T20:34:05.703Z,31.92
2022-12-25T20:36:37.141Z,36.67
2022-12-25T20:39:09.477Z,35.88
2022-12-25T20:42:15.727Z,31.65
2022-12-25T20:44:42.472Z,25.58
2022-12-25T20:47:26.821Z,23.42
2022-12-25T20:49:57.948Z,23.48
2022-12-25T20:52:24.529Z,28.73
2022-12-25T20:54:51.325Z,28.83
2022-12-25T20:57:17.915Z,28.08
2022-12-25T20:59:44.524Z,28.27
2022-12-25T21:02:34.747Z,25.73
2022-12-25T21:05:00.257Z,29.50
2022-12-25T21:07:26.911Z,23.92
2022-12-25T21:09:53.572Z,34.85
2022-12-25T21:12:20.213Z,37.92
2022-12-25T21:14:46.845Z,42.13
2022-12-25T21:17:14.039Z,46.53
2022-12-25T21:19:40.798Z,44.80
2022-12-25T21:22:07.533Z,45.15
2022-12-25T21:24:34.157Z,49.13
2022-12-25T21:27:00.929Z,52.72
2022-12-25T21:29:27.587Z,58.08
2022-12-25T21:32:15.583Z,60.22
2022-12-25T21:34:42.279Z,59.97
2022-12-25T21:37:08.891Z,58.65
2022-12-25T21:39:35.654Z,67.97
2022-12-25T21:42:04.689Z,59.53
2022-12-25T21:44:31.417Z,67.35
2022-12-25T21:46:58.104Z,64.28
2022-12-25T21:49:43.420Z,69.15
2022-12-25T21:52:10.091Z,70.18
2022-12-25T21:54:37.429Z,74.43
2022-12-25T21:57:04.081Z,64.68
2022-12-25T21:59:30.787Z,62.42
2022-12-25T22:01:59.389Z,57.97
2022-12-25T22:04:26.435Z,56.05
2022-12-25T22:07:11.799Z,64.03
2022-12-25T22:09:38.527Z,76.93
2022-12-25T22:12:28.595Z,71.97
2022-12-25T22:15:03.103Z,79.25
2022-12-25T22:18:00.558Z,76.95
2022-12-25T22:20:38.106Z,78.55
2022-12-25T22:23:05.263Z,86.32
2022-12-25T22:25:31.930Z,74.20
2022-12-25T22:27:58.609Z,64.20
2022-12-25T22:30:30.751Z,61.40
2022-12-25T22:32:57.754Z,64.90
2022-12-25T22:35:24.857Z,57.95
2022-12-25T22:37:51.803Z,57.88
2022-12-25T22:40:19.870Z,57.58
2022-12-25T22:42:47.465Z,59.25
2022-12-25T22:45:14.311Z,54.35
2022-12-25T22:47:41.807Z,52.97
2022-12-25T22:50:09.967Z,57.17
2022-12-25T22:52:37.286Z,51.63
2022-12-25T22:55:05.279Z,56.30
2022-12-25T22:57:31.885Z,54.88
2022-12-25T22:59:58.516Z,56.53
2022-12-25T23:02:25.469Z,51.67
2022-12-25T23:04:52.255Z,51.60
2022-12-25T23:07:19.117Z,45.33
2022-12-25T23:09:45.756Z,47.22
2022-12-25T23:12:32.426Z,52.10
2022-12-25T23:14:59.202Z,44.85
2022-12-25T23:17:44.397Z,39.90
2022-12-25T23:20:32.395Z,32.97
2022-12-25T23:23:17.665Z,29.52
2022-12-25T23:26:03.051Z,30.92
2022-12-25T23:28:48.469Z,32.85
2022-12-25T23:31:15.253Z,23.63
2022-12-25T23:33:41.908Z,27.20
2022-12-25T23:36:08.583Z,21.08
2022-12-25T23:38:35.169Z,24.55
2022-12-25T23:41:01.775Z,17.38
2022-12-25T23:43:28.405Z,24.67
2022-12-25T23:45:54.988Z,21.27
2022-12-25T23:48:21.629Z,24.05
2022-12-25T23:50:48.414Z,23.13
2022-12-25T23:53:15.069Z,23.70
2022-12-25T23:55:42.809Z,24.67
2022-12-25T23:58:09.835Z,29.52
